sensor_id;sensor_type;location;lat;lon;timestamp;P1;durP1;ratioP1;P2;durP2;ratioP2
22449;SDS011;11392;57.390;-2.468;2023-12-07T00:00:27;4.25;;;1.58;;
22449;SDS011;11392;57.390;-2.468;2023-12-07T00:02:54;4.05;;;1.20;;
22449;SDS011;11392;57.390;-2.468;2023-12-07T00:05:21;2.13;;;1.20;;
22449;SDS011;11392;57.390;-2.468;2023-12-07T00:07:48;3.13;;;1.20;;
22449;SDS011;11392;57.390;-2.468;2023-12-07T00:10:15;2.35;;;1.08;;
22449;SDS011;11392;57.390;-2.468;2023-12-07T00:12:42;1.70;;;1.13;;
22449;SDS011;11392;57.390;-2.468;2023-12-07T00:15:09;3.85;;;1.70;;
22449;SDS011;11392;57.390;-2.468;2023-12-07T00:17:36;3.67;;;1.48;;
22449;SDS011;11392;57.390;-2.468;2023-12-07T00:20:04;3.05;;;1.38;;
22449;SDS011;11392;57.390;-2.468;2023-12-07T00:22:31;3.72;;;1.23;;
22449;SDS011;11392;57.390;-2.468;2023-12-07T00:24:59;2.25;;;1.42;;
22449;SDS011;11392;57.390;-2.468;2023-12-07T00:27:26;3.22;;;1.65;;
22449;SDS011;11392;57.390;-2.468;2023-12-07T00:29:53;5.85;;;1.55;;
22449;SDS011;11392;57.390;-2.468;2023-12-07T00:32:20;5.68;;;1.80;;
22449;SDS011;11392;57.390;-2.468;2023-12-07T00:34:47;3.75;;;1.20;;
22449;SDS011;11392;57.390;-2.468;2023-12-07T00:37:15;5.10;;;1.60;;
22449;SDS011;11392;57.390;-2.468;2023-12-07T00:39:43;4.60;;;1.50;;
22449;SDS011;11392;57.390;-2.468;2023-12-07T00:42:10;5.82;;;1.75;;
22449;SDS011;11392;57.390;-2.468;2023-12-07T00:44:40;5.53;;;1.58;;
22449;SDS011;11392;57.390;-2.468;2023-12-07T00:47:07;10.15;;;2.05;;
22449;SDS011;11392;57.390;-2.468;2023-12-07T00:49:37;3.25;;;1.60;;
22449;SDS011;11392;57.390;-2.468;2023-12-07T00:52:06;4.88;;;2.65;;
22449;SDS011;11392;57.390;-2.468;2023-12-07T00:54:33;4.40;;;2.35;;
22449;SDS011;11392;57.390;-2.468;2023-12-07T00:57:00;4.03;;;1.50;;
22449;SDS011;11392;57.390;-2.468;2023-12-07T00:59:27;11.52;;;1.95;;
22449;SDS011;11392;57.390;-2.468;2023-12-07T01:02:00;4.15;;;1.80;;
22449;SDS011;11392;57.390;-2.468;2023-12-07T01:04:28;4.50;;;1.77;;
22449;SDS011;11392;57.390;-2.468;2023-12-07T01:06:56;6.63;;;2.00;;
22449;SDS011;11392;57.390;-2.468;2023-12-07T01:09:23;4.90;;;2.03;;
22449;SDS011;11392;57.390;-2.468;2023-12-07T01:11:51;7.28;;;1.85;;
22449;SDS011;11392;57.390;-2.468;2023-12-07T01:14:18;5.25;;;2.10;;
22449;SDS011;11392;57.390;-2.468;2023-12-07T01:16:45;6.63;;;2.10;;
22449;SDS011;11392;57.390;-2.468;2023-12-07T01:19:13;5.60;;;1.90;;
22449;SDS011;11392;57.390;-2.468;2023-12-07T01:21:41;6.75;;;2.25;;
22449;SDS011;11392;57.390;-2.468;2023-12-07T01:24:08;5.43;;;1.73;;
22449;SDS011;11392;57.390;-2.468;2023-12-07T01:26:41;4.78;;;2.03;;
22449;SDS011;11392;57.390;-2.468;2023-12-07T01:29:09;5.05;;;2.10;;
22449;SDS011;11392;57.390;-2.468;2023-12-07T01:31:36;4.25;;;1.90;;
22449;SDS011;11392;57.390;-2.468;2023-12-07T01:34:03;10.23;;;2.67;;
22449;SDS011;11392;57.390;-2.468;2023-12-07T01:36:30;4.80;;;2.47;;
22449;SDS011;11392;57.390;-2.468;2023-12-07T01:38:57;4.55;;;1.83;;
22449;SDS011;11392;57.390;-2.468;2023-12-07T01:41:25;4.60;;;2.03;;
22449;SDS011;11392;57.390;-2.468;2023-12-07T01:43:52;5.40;;;2.30;;
22449;SDS011;11392;57.390;-2.468;2023-12-07T01:46:19;6.30;;;2.05;;
22449;SDS011;11392;57.390;-2.468;2023-12-07T01:48:47;9.00;;;2.53;;
22449;SDS011;11392;57.390;-2.468;2023-12-07T01:51:16;2.67;;;1.88;;
22449;SDS011;11392;57.390;-2.468;2023-12-07T01:53:45;7.95;;;2.33;;
22449;SDS011;11392;57.390;-2.468;2023-12-07T01:56:14;4.00;;;1.77;;
22449;SDS011;11392;57.390;-2.468;2023-12-07T01:58:42;6.38;;;2.13;;
22449;SDS011;11392;57.390;-2.468;2023-12-07T02:01:10;7.07;;;2.15;;
22449;SDS011;11392;57.390;-2.468;2023-12-07T02:03:39;8.25;;;1.85;;
22449;SDS011;11392;57.390;-2.468;2023-12-07T02:06:07;5.15;;;2.00;;
22449;SDS011;11392;57.390;-2.468;2023-12-07T02:08:35;10.65;;;2.50;;
22449;SDS011;11392;57.390;-2.468;2023-12-07T02:11:08;7.80;;;2.22;;
22449;SDS011;11392;57.390;-2.468;2023-12-07T02:13:36;8.55;;;1.90;;
22449;SDS011;11392;57.390;-2.468;2023-12-07T02:16:15;4.07;;;2.10;;
22449;SDS011;11392;57.390;-2.468;2023-12-07T02:18:51;9.00;;;2.55;;
22449;SDS011;11392;57.390;-2.468;2023-12-07T02:21:34;7.90;;;2.20;;
22449;SDS011;11392;57.390;-2.468;2023-12-07T02:24:05;9.07;;;3.22;;
22449;SDS011;11392;57.390;-2.468;2023-12-07T02:26:36;9.25;;;2.35;;
22449;SDS011;11392;57.390;-2.468;2023-12-07T02:29:04;9.60;;;2.08;;
22449;SDS011;11392;57.390;-2.468;2023-12-07T02:31:31;6.57;;;2.10;;
22449;SDS011;11392;57.390;-2.468;2023-12-07T02:33:58;8.07;;;2.20;;
22449;SDS011;11392;57.390;-2.468;2023-12-07T02:36:26;5.57;;;1.90;;
22449;SDS011;11392;57.390;-2.468;2023-12-07T02:38:56;7.70;;;2.15;;
22449;SDS011;11392;57.390;-2.468;2023-12-07T02:41:24;10.70;;;2.05;;
22449;SDS011;11392;57.390;-2.468;2023-12-07T02:43:53;6.63;;;1.80;;
22449;SDS011;11392;57.390;-2.468;2023-12-07T02:46:21;7.13;;;2.25;;
22449;SDS011;11392;57.390;-2.468;2023-12-07T02:48:48;8.75;;;2.40;;
22449;SDS011;11392;57.390;-2.468;2023-12-07T02:51:15;7.53;;;2.20;;
22449;SDS011;11392;57.390;-2.468;2023-12-07T02:53:42;8.07;;;2.92;;
22449;SDS011;11392;57.390;-2.468;2023-12-07T02:56:09;10.80;;;2.15;;
22449;SDS011;11392;57.390;-2.468;2023-12-07T02:58:36;7.53;;;2.10;;
22449;SDS011;11392;57.390;-2.468;2023-12-07T03:01:03;4.38;;;2.10;;
22449;SDS011;11392;57.390;-2.468;2023-12-07T03:03:31;6.22;;;1.98;;
22449;SDS011;11392;57.390;-2.468;2023-12-07T03:05:58;10.57;;;2.40;;
22449;SDS011;11392;57.390;-2.468;2023-12-07T03:08:25;6.13;;;1.98;;
22449;SDS011;11392;57.390;-2.468;2023-12-07T03:10:53;8.30;;;2.28;;
22449;SDS011;11392;57.390;-2.468;2023-12-07T03:13:20;4.72;;;1.98;;
22449;SDS011;11392;57.390;-2.468;2023-12-07T03:15:48;7.50;;;2.30;;
22449;SDS011;11392;57.390;-2.468;2023-12-07T03:18:15;11.00;;;2.30;;
22449;SDS011;11392;57.390;-2.468;2023-12-07T03:20:42;6.60;;;2.53;;
22449;SDS011;11392;57.390;-2.468;2023-12-07T03:23:09;8.27;;;2.55;;
22449;SDS011;11392;57.390;-2.468;2023-12-07T03:25:36;8.98;;;2.55;;
22449;SDS011;11392;57.390;-2.468;2023-12-07T03:28:04;7.20;;;2.33;;
22449;SDS011;11392;57.390;-2.468;2023-12-07T03:30:31;5.40;;;2.17;;
22449;SDS011;11392;57.390;-2.468;2023-12-07T03:32:58;5.60;;;2.42;;
22449;SDS011;11392;57.390;-2.468;2023-12-07T03:35:25;6.05;;;2.15;;
22449;SDS011;11392;57.390;-2.468;2023-12-07T03:37:52;7.07;;;2.40;;
22449;SDS011;11392;57.390;-2.468;2023-12-07T03:40:19;6.60;;;2.30;;
22449;SDS011;11392;57.390;-2.468;2023-12-07T03:42:46;8.02;;;2.40;;
22449;SDS011;11392;57.390;-2.468;2023-12-07T03:45:22;6.35;;;2.60;;
22449;SDS011;11392;57.390;-2.468;2023-12-07T03:47:50;9.45;;;2.40;;
22449;SDS011;11392;57.390;-2.468;2023-12-07T03:50:17;7.80;;;2.25;;
22449;SDS011;11392;57.390;-2.468;2023-12-07T03:52:44;6.05;;;2.20;;
22449;SDS011;11392;57.390;-2.468;2023-12-07T03:55:11;7.38;;;2.63;;
22449;SDS011;11392;57.390;-2.468;2023-12-07T03:57:39;6.82;;;2.78;;
22449;SDS011;11392;57.390;-2.468;2023-12-07T04:00:06;9.85;;;3.38;;
22449;SDS011;11392;57.390;-2.468;2023-12-07T04:02:36;5.55;;;2.22;;
22449;SDS011;11392;57.390;-2.468;2023-12-07T04:05:03;7.18;;;2.28;;
22449;SDS011;11392;57.390;-2.468;2023-12-07T04:07:30;4.90;;;1.77;;
22449;SDS011;11392;57.390;-2.468;2023-12-07T04:09:57;5.88;;;2.70;;
22449;SDS011;11392;57.390;-2.468;2023-12-07T04:12:24;8.20;;;2.60;;
22449;SDS011;11392;57.390;-2.468;2023-12-07T04:14:52;5.80;;;2.45;;
22449;SDS011;11392;57.390;-2.468;2023-12-07T04:17:19;7.95;;;2.28;;
22449;SDS011;11392;57.390;-2.468;2023-12-07T04:19:46;7.63;;;2.50;;
22449;SDS011;11392;57.390;-2.468;2023-12-07T04:22:13;15.75;;;3.95;;
22449;SDS011;11392;57.390;-2.468;2023-12-07T04:24:40;8.30;;;2.33;;
22449;SDS011;11392;57.390;-2.468;2023-12-07T04:27:07;7.47;;;2.08;;
22449;SDS011;11392;57.390;-2.468;2023-12-07T04:29:34;8.82;;;2.30;;
22449;SDS011;11392;57.390;-2.468;2023-12-07T04:32:02;10.43;;;2.53;;
22449;SDS011;11392;57.390;-2.468;2023-12-07T04:34:30;7.13;;;2.85;;
22449;SDS011;11392;57.390;-2.468;2023-12-07T04:36:57;7.90;;;2.65;;
22449;SDS011;11392;57.390;-2.468;2023-12-07T04:39:25;9.00;;;2.00;;
22449;SDS011;11392;57.390;-2.468;2023-12-07T04:41:52;9.75;;;2.53;;
22449;SDS011;11392;57.390;-2.468;2023-12-07T04:44:19;9.63;;;2.40;;
22449;SDS011;11392;57.390;-2.468;2023-12-07T04:46:46;5.85;;;2.33;;
22449;SDS011;11392;57.390;-2.468;2023-12-07T04:49:13;8.27;;;2.28;;
22449;SDS011;11392;57.390;-2.468;2023-12-07T04:51:40;5.45;;;2.72;;
22449;SDS011;11392;57.390;-2.468;2023-12-07T04:54:08;7.22;;;2.60;;
22449;SDS011;11392;57.390;-2.468;2023-12-07T04:56:45;10.38;;;2.92;;
22449;SDS011;11392;57.390;-2.468;2023-12-07T04:59:12;9.73;;;3.78;;
22449;SDS011;11392;57.390;-2.468;2023-12-07T05:01:39;7.80;;;2.10;;
22449;SDS011;11392;57.390;-2.468;2023-12-07T05:04:06;12.13;;;2.83;;
22449;SDS011;11392;57.390;-2.468;2023-12-07T05:06:34;5.32;;;2.45;;
22449;SDS011;11392;57.390;-2.468;2023-12-07T05:09:01;8.07;;;2.83;;
22449;SDS011;11392;57.390;-2.468;2023-12-07T05:11:29;7.57;;;2.72;;
22449;SDS011;11392;57.390;-2.468;2023-12-07T05:13:56;8.73;;;3.53;;
22449;SDS011;11392;57.390;-2.468;2023-12-07T05:16:24;7.43;;;2.50;;
22449;SDS011;11392;57.390;-2.468;2023-12-07T05:18:51;5.10;;;2.30;;
22449;SDS011;11392;57.390;-2.468;2023-12-07T05:21:18;10.43;;;2.65;;
22449;SDS011;11392;57.390;-2.468;2023-12-07T05:23:46;8.05;;;2.58;;
22449;SDS011;11392;57.390;-2.468;2023-12-07T05:26:13;9.52;;;2.65;;
22449;SDS011;11392;57.390;-2.468;2023-12-07T05:28:41;8.77;;;2.63;;
22449;SDS011;11392;57.390;-2.468;2023-12-07T05:31:08;14.38;;;3.67;;
22449;SDS011;11392;57.390;-2.468;2023-12-07T05:33:35;11.95;;;2.80;;
22449;SDS011;11392;57.390;-2.468;2023-12-07T05:36:02;9.60;;;3.63;;
22449;SDS011;11392;57.390;-2.468;2023-12-07T05:38:30;9.25;;;3.25;;
22449;SDS011;11392;57.390;-2.468;2023-12-07T05:40:57;6.80;;;2.67;;
22449;SDS011;11392;57.390;-2.468;2023-12-07T05:43:24;13.40;;;3.58;;
22449;SDS011;11392;57.390;-2.468;2023-12-07T05:45:52;7.45;;;2.78;;
22449;SDS011;11392;57.390;-2.468;2023-12-07T05:48:19;9.02;;;3.40;;
22449;SDS011;11392;57.390;-2.468;2023-12-07T05:50:46;9.95;;;3.28;;
22449;SDS011;11392;57.390;-2.468;2023-12-07T05:53:13;8.80;;;3.83;;
22449;SDS011;11392;57.390;-2.468;2023-12-07T05:55:40;10.73;;;3.75;;
22449;SDS011;11392;57.390;-2.468;2023-12-07T05:58:07;9.60;;;3.05;;
22449;SDS011;11392;57.390;-2.468;2023-12-07T06:00:34;7.40;;;3.38;;
22449;SDS011;11392;57.390;-2.468;2023-12-07T06:03:02;9.30;;;3.65;;
22449;SDS011;11392;57.390;-2.468;2023-12-07T06:05:29;9.30;;;3.33;;
22449;SDS011;11392;57.390;-2.468;2023-12-07T06:07:56;10.88;;;3.42;;
22449;SDS011;11392;57.390;-2.468;2023-12-07T06:10:23;15.40;;;4.38;;
22449;SDS011;11392;57.390;-2.468;2023-12-07T06:12:50;13.35;;;4.07;;
22449;SDS011;11392;57.390;-2.468;2023-12-07T06:15:17;12.82;;;4.63;;
22449;SDS011;11392;57.390;-2.468;2023-12-07T06:17:44;17.13;;;3.85;;
22449;SDS011;11392;57.390;-2.468;2023-12-07T06:20:11;12.30;;;3.50;;
22449;SDS011;11392;57.390;-2.468;2023-12-07T06:22:39;13.13;;;3.83;;
22449;SDS011;11392;57.390;-2.468;2023-12-07T06:25:06;9.85;;;4.05;;
22449;SDS011;11392;57.390;-2.468;2023-12-07T06:27:35;11.60;;;3.60;;
22449;SDS011;11392;57.390;-2.468;2023-12-07T06:30:03;13.93;;;3.67;;
22449;SDS011;11392;57.390;-2.468;2023-12-07T06:32:32;10.65;;;3.08;;
22449;SDS011;11392;57.390;-2.468;2023-12-07T06:34:59;15.32;;;5.75;;
22449;SDS011;11392;57.390;-2.468;2023-12-07T06:37:27;18.20;;;4.38;;
22449;SDS011;11392;57.390;-2.468;2023-12-07T06:39:54;14.13;;;4.88;;
22449;SDS011;11392;57.390;-2.468;2023-12-07T06:42:21;16.48;;;4.70;;
22449;SDS011;11392;57.390;-2.468;2023-12-07T06:44:49;12.60;;;3.65;;
22449;SDS011;11392;57.390;-2.468;2023-12-07T06:47:16;10.93;;;4.07;;
22449;SDS011;11392;57.390;-2.468;2023-12-07T06:49:44;14.02;;;3.50;;
22449;SDS011;11392;57.390;-2.468;2023-12-07T06:52:18;12.00;;;3.20;;
22449;SDS011;11392;57.390;-2.468;2023-12-07T06:54:45;12.02;;;3.65;;
22449;SDS011;11392;57.390;-2.468;2023-12-07T06:57:13;14.43;;;3.30;;
22449;SDS011;11392;57.390;-2.468;2023-12-07T06:59:41;8.50;;;2.65;;
22449;SDS011;11392;57.390;-2.468;2023-12-07T07:02:08;11.15;;;2.85;;
22449;SDS011;11392;57.390;-2.468;2023-12-07T07:04:35;11.77;;;2.95;;
22449;SDS011;11392;57.390;-2.468;2023-12-07T07:07:02;13.18;;;2.67;;
22449;SDS011;11392;57.390;-2.468;2023-12-07T07:09:29;7.18;;;2.35;;
22449;SDS011;11392;57.390;-2.468;2023-12-07T07:11:57;9.90;;;2.50;;
22449;SDS011;11392;57.390;-2.468;2023-12-07T07:14:24;9.75;;;3.15;;
22449;SDS011;11392;57.390;-2.468;2023-12-07T07:16:51;12.90;;;2.60;;
22449;SDS011;11392;57.390;-2.468;2023-12-07T07:19:18;7.40;;;2.65;;
22449;SDS011;11392;57.390;-2.468;2023-12-07T07:21:45;17.17;;;3.85;;
22449;SDS011;11392;57.390;-2.468;2023-12-07T07:24:14;5.32;;;2.72;;
22449;SDS011;11392;57.390;-2.468;2023-12-07T07:26:42;12.57;;;3.13;;
22449;SDS011;11392;57.390;-2.468;2023-12-07T07:29:10;13.80;;;3.40;;
22449;SDS011;11392;57.390;-2.468;2023-12-07T07:31:37;17.88;;;4.95;;
22449;SDS011;11392;57.390;-2.468;2023-12-07T07:34:05;11.93;;;4.38;;
22449;SDS011;11392;57.390;-2.468;2023-12-07T07:36:33;12.70;;;3.72;;
22449;SDS011;11392;57.390;-2.468;2023-12-07T07:39:00;13.55;;;3.75;;
22449;SDS011;11392;57.390;-2.468;2023-12-07T07:41:27;7.13;;;2.67;;
22449;SDS011;11392;57.390;-2.468;2023-12-07T07:43:54;8.68;;;3.42;;
22449;SDS011;11392;57.390;-2.468;2023-12-07T07:46:21;8.32;;;3.15;;
22449;SDS011;11392;57.390;-2.468;2023-12-07T07:48:48;14.63;;;3.45;;
22449;SDS011;11392;57.390;-2.468;2023-12-07T07:51:16;19.77;;;3.85;;
22449;SDS011;11392;57.390;-2.468;2023-12-07T07:53:43;14.73;;;3.25;;
22449;SDS011;11392;57.390;-2.468;2023-12-07T07:56:10;15.38;;;4.57;;
22449;SDS011;11392;57.390;-2.468;2023-12-07T07:58:40;18.67;;;4.72;;
22449;SDS011;11392;57.390;-2.468;2023-12-07T08:01:07;10.25;;;3.33;;
22449;SDS011;11392;57.390;-2.468;2023-12-07T08:03:34;12.70;;;4.57;;
22449;SDS011;11392;57.390;-2.468;2023-12-07T08:06:01;15.50;;;4.07;;
22449;SDS011;11392;57.390;-2.468;2023-12-07T08:08:29;11.30;;;4.45;;
22449;SDS011;11392;57.390;-2.468;2023-12-07T08:10:56;16.20;;;3.80;;
22449;SDS011;11392;57.390;-2.468;2023-12-07T08:13:23;17.30;;;3.78;;
22449;SDS011;11392;57.390;-2.468;2023-12-07T08:15:50;20.10;;;4.07;;
22449;SDS011;11392;57.390;-2.468;2023-12-07T08:18:23;13.43;;;3.80;;
22449;SDS011;11392;57.390;-2.468;2023-12-07T08:20:57;13.13;;;3.47;;
22449;SDS011;11392;57.390;-2.468;2023-12-07T08:23:27;14.82;;;5.10;;
22449;SDS011;11392;57.390;-2.468;2023-12-07T08:25:54;18.65;;;4.45;;
22449;SDS011;11392;57.390;-2.468;2023-12-07T08:28:23;11.82;;;3.22;;
22449;SDS011;11392;57.390;-2.468;2023-12-07T08:30:50;9.88;;;3.13;;
22449;SDS011;11392;57.390;-2.468;2023-12-07T08:33:21;13.35;;;3.42;;
22449;SDS011;11392;57.390;-2.468;2023-12-07T08:35:48;10.02;;;3.15;;
22449;SDS011;11392;57.390;-2.468;2023-12-07T08:38:21;8.07;;;3.00;;
22449;SDS011;11392;57.390;-2.468;2023-12-07T08:40:49;10.85;;;3.08;;
22449;SDS011;11392;57.390;-2.468;2023-12-07T08:43:21;8.65;;;3.40;;
22449;SDS011;11392;57.390;-2.468;2023-12-07T08:45:52;13.98;;;3.85;;
22449;SDS011;11392;57.390;-2.468;2023-12-07T08:48:27;12.80;;;3.83;;
22449;SDS011;11392;57.390;-2.468;2023-12-07T08:50:54;16.08;;;4.05;;
22449;SDS011;11392;57.390;-2.468;2023-12-07T08:53:21;14.10;;;3.42;;
22449;SDS011;11392;57.390;-2.468;2023-12-07T08:55:48;11.65;;;3.35;;
22449;SDS011;11392;57.390;-2.468;2023-12-07T08:58:15;18.15;;;4.35;;
22449;SDS011;11392;57.390;-2.468;2023-12-07T09:00:42;17.42;;;4.05;;
22449;SDS011;11392;57.390;-2.468;2023-12-07T09:03:10;17.60;;;3.88;;
22449;SDS011;11392;57.390;-2.468;2023-12-07T09:05:38;8.98;;;3.38;;
22449;SDS011;11392;57.390;-2.468;2023-12-07T09:08:05;13.88;;;3.70;;
22449;SDS011;11392;57.390;-2.468;2023-12-07T09:10:33;16.08;;;4.40;;
22449;SDS011;11392;57.390;-2.468;2023-12-07T09:13:03;15.75;;;3.78;;
22449;SDS011;11392;57.390;-2.468;2023-12-07T09:15:31;11.65;;;4.45;;
22449;SDS011;11392;57.390;-2.468;2023-12-07T09:17:59;12.05;;;4.05;;
22449;SDS011;11392;57.390;-2.468;2023-12-07T09:20:26;11.07;;;3.10;;
22449;SDS011;11392;57.390;-2.468;2023-12-07T09:22:55;7.22;;;3.13;;
22449;SDS011;11392;57.390;-2.468;2023-12-07T09:25:23;9.52;;;3.72;;
22449;SDS011;11392;57.390;-2.468;2023-12-07T09:27:54;13.18;;;4.03;;
22449;SDS011;11392;57.390;-2.468;2023-12-07T09:30:21;12.10;;;4.22;;
22449;SDS011;11392;57.390;-2.468;2023-12-07T09:32:48;15.25;;;4.20;;
22449;SDS011;11392;57.390;-2.468;2023-12-07T09:35:15;12.75;;;3.85;;
22449;SDS011;11392;57.390;-2.468;2023-12-07T09:37:48;11.27;;;3.50;;
22449;SDS011;11392;57.390;-2.468;2023-12-07T09:40:23;15.57;;;4.88;;
22449;SDS011;11392;57.390;-2.468;2023-12-07T09:42:51;12.68;;;3.97;;
22449;SDS011;11392;57.390;-2.468;2023-12-07T09:45:18;11.43;;;4.75;;
22449;SDS011;11392;57.390;-2.468;2023-12-07T09:47:48;12.38;;;3.15;;
22449;SDS011;11392;57.390;-2.468;2023-12-07T09:50:17;13.57;;;4.68;;
22449;SDS011;11392;57.390;-2.468;2023-12-07T09:52:48;14.15;;;4.97;;
22449;SDS011;11392;57.390;-2.468;2023-12-07T09:55:30;13.85;;;4.60;;
22449;SDS011;11392;57.390;-2.468;2023-12-07T09:57:57;14.30;;;4.82;;
22449;SDS011;11392;57.390;-2.468;2023-12-07T10:00:25;11.80;;;3.95;;
22449;SDS011;11392;57.390;-2.468;2023-12-07T10:02:52;14.50;;;4.30;;
22449;SDS011;11392;57.390;-2.468;2023-12-07T10:05:21;13.35;;;4.75;;
22449;SDS011;11392;57.390;-2.468;2023-12-07T10:07:49;20.25;;;4.90;;
22449;SDS011;11392;57.390;-2.468;2023-12-07T10:10:18;14.02;;;5.03;;
22449;SDS011;11392;57.390;-2.468;2023-12-07T10:12:52;16.80;;;5.28;;
22449;SDS011;11392;57.390;-2.468;2023-12-07T10:15:22;20.55;;;5.57;;
22449;SDS011;11392;57.390;-2.468;2023-12-07T10:17:54;17.48;;;4.75;;
22449;SDS011;11392;57.390;-2.468;2023-12-07T10:20:26;12.63;;;5.03;;
22449;SDS011;11392;57.390;-2.468;2023-12-07T10:23:01;15.52;;;4.40;;
22449;SDS011;11392;57.390;-2.468;2023-12-07T10:25:38;21.50;;;5.07;;
22449;SDS011;11392;57.390;-2.468;2023-12-07T10:28:08;11.75;;;4.05;;
22449;SDS011;11392;57.390;-2.468;2023-12-07T10:30:41;13.73;;;5.20;;
22449;SDS011;11392;57.390;-2.468;2023-12-07T10:33:10;17.23;;;5.00;;
22449;SDS011;11392;57.390;-2.468;2023-12-07T10:35:40;20.45;;;4.65;;
22449;SDS011;11392;57.390;-2.468;2023-12-07T10:38:09;25.80;;;6.30;;
22449;SDS011;11392;57.390;-2.468;2023-12-07T10:40:38;16.83;;;5.10;;
22449;SDS011;11392;57.390;-2.468;2023-12-07T10:43:06;16.55;;;5.90;;
22449;SDS011;11392;57.390;-2.468;2023-12-07T10:45:34;16.15;;;4.95;;
22449;SDS011;11392;57.390;-2.468;2023-12-07T10:48:07;15.63;;;5.00;;
22449;SDS011;11392;57.390;-2.468;2023-12-07T10:50:36;17.48;;;5.05;;
22449;SDS011;11392;57.390;-2.468;2023-12-07T10:53:10;11.95;;;4.28;;
22449;SDS011;11392;57.390;-2.468;2023-12-07T10:55:45;14.20;;;4.65;;
22449;SDS011;11392;57.390;-2.468;2023-12-07T10:58:16;14.10;;;5.63;;
22449;SDS011;11392;57.390;-2.468;2023-12-07T11:00:46;12.77;;;5.10;;
22449;SDS011;11392;57.390;-2.468;2023-12-07T11:03:16;19.42;;;4.80;;
22449;SDS011;11392;57.390;-2.468;2023-12-07T11:05:48;19.00;;;6.20;;
22449;SDS011;11392;57.390;-2.468;2023-12-07T11:08:28;18.80;;;4.78;;
22449;SDS011;11392;57.390;-2.468;2023-12-07T11:13:35;18.48;;;6.28;;
22449;SDS011;11392;57.390;-2.468;2023-12-07T11:16:04;16.90;;;5.45;;
22449;SDS011;11392;57.390;-2.468;2023-12-07T11:18:31;27.40;;;8.57;;
22449;SDS011;11392;57.390;-2.468;2023-12-07T11:20:59;20.35;;;4.85;;
22449;SDS011;11392;57.390;-2.468;2023-12-07T11:23:27;22.55;;;5.65;;
22449;SDS011;11392;57.390;-2.468;2023-12-07T11:25:55;20.35;;;6.78;;
22449;SDS011;11392;57.390;-2.468;2023-12-07T11:28:36;11.40;;;5.20;;
22449;SDS011;11392;57.390;-2.468;2023-12-07T11:31:06;15.73;;;4.90;;
22449;SDS011;11392;57.390;-2.468;2023-12-07T11:33:37;16.38;;;5.68;;
22449;SDS011;11392;57.390;-2.468;2023-12-07T11:36:06;12.48;;;4.72;;
22449;SDS011;11392;57.390;-2.468;2023-12-07T11:38:37;22.40;;;5.47;;
22449;SDS011;11392;57.390;-2.468;2023-12-07T11:41:28;13.82;;;4.78;;
22449;SDS011;11392;57.390;-2.468;2023-12-07T11:43:58;16.98;;;4.95;;
22449;SDS011;11392;57.390;-2.468;2023-12-07T11:46:25;13.80;;;5.50;;
22449;SDS011;11392;57.390;-2.468;2023-12-07T11:48:52;17.77;;;6.63;;
22449;SDS011;11392;57.390;-2.468;2023-12-07T11:51:20;23.42;;;7.05;;
22449;SDS011;11392;57.390;-2.468;2023-12-07T11:53:47;13.07;;;6.13;;
22449;SDS011;11392;57.390;-2.468;2023-12-07T11:56:17;21.33;;;6.78;;
22449;SDS011;11392;57.390;-2.468;2023-12-07T11:58:48;20.65;;;6.20;;
22449;SDS011;11392;57.390;-2.468;2023-12-07T12:01:16;15.13;;;5.20;;
22449;SDS011;11392;57.390;-2.468;2023-12-07T12:03:43;19.65;;;6.28;;
22449;SDS011;11392;57.390;-2.468;2023-12-07T12:06:11;19.83;;;5.75;;
22449;SDS011;11392;57.390;-2.468;2023-12-07T12:08:40;23.20;;;6.95;;
22449;SDS011;11392;57.390;-2.468;2023-12-07T12:11:08;14.38;;;5.95;;
22449;SDS011;11392;57.390;-2.468;2023-12-07T12:13:36;15.75;;;5.90;;
22449;SDS011;11392;57.390;-2.468;2023-12-07T12:16:03;16.35;;;6.43;;
22449;SDS011;11392;57.390;-2.468;2023-12-07T12:18:33;24.25;;;6.63;;
22449;SDS011;11392;57.390;-2.468;2023-12-07T12:21:01;15.13;;;5.20;;
22449;SDS011;11392;57.390;-2.468;2023-12-07T12:23:29;19.60;;;5.53;;
22449;SDS011;11392;57.390;-2.468;2023-12-07T12:25:56;20.33;;;6.07;;
22449;SDS011;11392;57.390;-2.468;2023-12-07T12:28:24;19.55;;;5.88;;
22449;SDS011;11392;57.390;-2.468;2023-12-07T12:30:52;23.58;;;6.30;;
22449;SDS011;11392;57.390;-2.468;2023-12-07T12:33:19;21.50;;;6.50;;
22449;SDS011;11392;57.390;-2.468;2023-12-07T12:35:46;13.05;;;5.38;;
22449;SDS011;11392;57.390;-2.468;2023-12-07T12:38:30;19.77;;;5.97;;
22449;SDS011;11392;57.390;-2.468;2023-12-07T12:41:08;20.65;;;5.40;;
22449;SDS011;11392;57.390;-2.468;2023-12-07T12:43:35;24.55;;;5.97;;
22449;SDS011;11392;57.390;-2.468;2023-12-07T12:46:02;24.95;;;5.32;;
22449;SDS011;11392;57.390;-2.468;2023-12-07T12:48:32;18.13;;;6.28;;
22449;SDS011;11392;57.390;-2.468;2023-12-07T12:51:12;15.65;;;5.35;;
22449;SDS011;11392;57.390;-2.468;2023-12-07T12:53:44;21.20;;;6.20;;
22449;SDS011;11392;57.390;-2.468;2023-12-07T12:56:17;17.88;;;5.40;;
22449;SDS011;11392;57.390;-2.468;2023-12-07T12:58:47;20.25;;;5.65;;
22449;SDS011;11392;57.390;-2.468;2023-12-07T13:01:18;20.20;;;5.65;;
22449;SDS011;11392;57.390;-2.468;2023-12-07T13:03:47;20.90;;;6.10;;
22449;SDS011;11392;57.390;-2.468;2023-12-07T13:06:14;18.90;;;5.82;;
22449;SDS011;11392;57.390;-2.468;2023-12-07T13:08:46;24.42;;;5.55;;
22449;SDS011;11392;57.390;-2.468;2023-12-07T13:11:15;15.65;;;5.00;;
22449;SDS011;11392;57.390;-2.468;2023-12-07T13:13:43;15.05;;;4.70;;
22449;SDS011;11392;57.390;-2.468;2023-12-07T13:16:10;19.17;;;6.15;;
22449;SDS011;11392;57.390;-2.468;2023-12-07T13:18:40;18.48;;;6.10;;
22449;SDS011;11392;57.390;-2.468;2023-12-07T13:21:07;21.38;;;5.63;;
22449;SDS011;11392;57.390;-2.468;2023-12-07T13:23:36;20.80;;;5.60;;
22449;SDS011;11392;57.390;-2.468;2023-12-07T13:26:04;12.65;;;4.97;;
22449;SDS011;11392;57.390;-2.468;2023-12-07T13:28:32;19.90;;;4.95;;
22449;SDS011;11392;57.390;-2.468;2023-12-07T13:30:59;9.13;;;3.95;;
22449;SDS011;11392;57.390;-2.468;2023-12-07T13:33:26;19.10;;;4.07;;
22449;SDS011;11392;57.390;-2.468;2023-12-07T13:35:59;12.82;;;3.88;;
22449;SDS011;11392;57.390;-2.468;2023-12-07T13:38:32;13.50;;;4.70;;
22449;SDS011;11392;57.390;-2.468;2023-12-07T13:41:01;11.93;;;3.90;;
22449;SDS011;11392;57.390;-2.468;2023-12-07T13:43:29;12.13;;;3.17;;
22449;SDS011;11392;57.390;-2.468;2023-12-07T13:45:59;12.98;;;4.00;;
22449;SDS011;11392;57.390;-2.468;2023-12-07T13:48:26;13.85;;;4.40;;
22449;SDS011;11392;57.390;-2.468;2023-12-07T13:50:53;12.05;;;3.65;;
22449;SDS011;11392;57.390;-2.468;2023-12-07T13:53:21;15.57;;;5.35;;
22449;SDS011;11392;57.390;-2.468;2023-12-07T13:55:48;15.02;;;5.00;;
22449;SDS011;11392;57.390;-2.468;2023-12-07T13:58:17;19.20;;;5.25;;
22449;SDS011;11392;57.390;-2.468;2023-12-07T14:00:44;16.55;;;4.65;;
22449;SDS011;11392;57.390;-2.468;2023-12-07T14:03:12;10.82;;;4.43;;
22449;SDS011;11392;57.390;-2.468;2023-12-07T14:05:39;16.13;;;5.20;;
22449;SDS011;11392;57.390;-2.468;2023-12-07T14:08:07;18.73;;;5.97;;
22449;SDS011;11392;57.390;-2.468;2023-12-07T14:10:35;20.17;;;6.57;;
22449;SDS011;11392;57.390;-2.468;2023-12-07T14:13:02;23.67;;;6.25;;
22449;SDS011;11392;57.390;-2.468;2023-12-07T14:15:30;14.68;;;5.30;;
22449;SDS011;11392;57.390;-2.468;2023-12-07T14:18:10;17.38;;;5.93;;
22449;SDS011;11392;57.390;-2.468;2023-12-07T14:20:40;16.45;;;6.82;;
22449;SDS011;11392;57.390;-2.468;2023-12-07T14:23:28;16.48;;;6.32;;
22449;SDS011;11392;57.390;-2.468;2023-12-07T14:25:55;14.32;;;5.53;;
22449;SDS011;11392;57.390;-2.468;2023-12-07T14:28:29;16.50;;;6.43;;
22449;SDS011;11392;57.390;-2.468;2023-12-07T14:30:57;23.63;;;7.72;;
22449;SDS011;11392;57.390;-2.468;2023-12-07T14:33:26;15.50;;;5.30;;
22449;SDS011;11392;57.390;-2.468;2023-12-07T14:35:53;22.85;;;6.95;;